createdAt,value
2018-05-05T00:00:29.393Z,3.07
2018-05-05T00:02:56.876Z,4.50
2018-05-05T00:05:24.408Z,3.67
2018-05-05T00:07:51.894Z,3.80
2018-05-05T00:10:19.355Z,4.10
2018-05-05T00:12:46.845Z,4.27
2018-05-05T00:15:14.313Z,3.70
2018-05-05T00:17:41.806Z,3.60
2018-05-05T00:20:09.300Z,3.30
2018-05-05T00:22:36.743Z,3.70
2018-05-05T00:25:04.231Z,3.10
2018-05-05T00:27:31.684Z,3.47
2018-05-05T00:29:59.161Z,4.60
2018-05-05T00:32:26.638Z,3.63
2018-05-05T00:34:54.918Z,3.63
2018-05-05T00:37:23.165Z,3.67
2018-05-05T00:39:50.623Z,4.33
2018-05-05T00:42:18.089Z,3.90
2018-05-05T00:44:45.571Z,4.27
2018-05-05T00:47:13.818Z,3.40
2018-05-05T00:49:41.304Z,3.87
2018-05-05T00:52:09.586Z,3.77
2018-05-05T00:54:48.900Z,4.30
2018-05-05T00:57:16.386Z,4.07
2018-05-05T00:59:43.840Z,4.37
2018-05-05T01:02:11.328Z,4.23
2018-05-05T01:04:38.784Z,4.40
2018-05-05T01:07:06.332Z,4.70
2018-05-05T01:09:33.830Z,4.30
2018-05-05T01:12:01.284Z,3.70
2018-05-05T01:14:28.781Z,4.00
2018-05-05T01:16:57.014Z,4.73
2018-05-05T01:19:24.777Z,3.37
2018-05-05T01:21:52.262Z,4.10
2018-05-05T01:24:19.708Z,4.57
2018-05-05T01:26:47.175Z,4.10
2018-05-05T01:29:14.661Z,4.13
2018-05-05T01:31:42.120Z,4.13
2018-05-05T01:34:10.354Z,4.10
2018-05-05T01:36:37.849Z,4.20
2018-05-05T01:39:05.480Z,4.50
2018-05-05T01:41:32.983Z,5.13
2018-05-05T01:44:00.443Z,4.10
2018-05-05T01:46:27.938Z,4.40
2018-05-05T01:48:55.397Z,4.90
2018-05-05T01:51:22.855Z,5.57
2018-05-05T01:53:50.337Z,3.90
2018-05-05T01:56:17.848Z,5.37
2018-05-05T01:58:45.325Z,5.00
2018-05-05T02:01:13.001Z,4.20
2018-05-05T02:03:40.485Z,4.90
2018-05-05T02:06:07.985Z,4.93
2018-05-05T02:08:35.438Z,4.40
2018-05-05T02:11:02.905Z,4.20
2018-05-05T02:13:30.376Z,4.20
2018-05-05T02:15:57.840Z,4.70
2018-05-05T02:18:25.334Z,5.13
2018-05-05T02:20:52.800Z,5.27
2018-05-05T02:23:21.059Z,4.30
2018-05-05T02:25:48.544Z,4.93
2018-05-05T02:28:16.798Z,4.20
2018-05-05T02:30:44.290Z,4.53
2018-05-05T02:33:11.802Z,4.30
2018-05-05T02:35:39.358Z,4.50
2018-05-05T02:38:06.770Z,4.90
2018-05-05T02:40:34.228Z,4.50
2018-05-05T02:43:01.709Z,4.23
2018-05-05T02:45:29.240Z,4.43
2018-05-05T02:47:57.484Z,3.70
2018-05-05T02:50:24.983Z,4.90
2018-05-05T02:52:52.429Z,4.17
2018-05-05T02:55:20.700Z,4.70
2018-05-05T02:57:48.953Z,3.90
2018-05-05T03:00:16.438Z,4.30
2018-05-05T03:02:44.673Z,4.13
2018-05-05T03:05:12.152Z,4.23
2018-05-05T03:07:39.637Z,3.30
2018-05-05T03:10:07.864Z,3.93
2018-05-05T03:12:35.357Z,4.60
2018-05-05T03:15:03.592Z,4.00
2018-05-05T03:17:31.076Z,4.10
2018-05-05T03:19:58.537Z,4.30
2018-05-05T03:22:25.991Z,4.60
2018-05-05T03:24:53.498Z,3.90
2018-05-05T03:27:20.959Z,4.47
2018-05-05T03:29:48.433Z,4.13
2018-05-05T03:32:15.888Z,5.30
2018-05-05T03:34:43.381Z,3.90
2018-05-05T03:37:10.845Z,5.27
2018-05-05T03:39:38.324Z,5.13
2018-05-05T03:42:05.786Z,4.50
2018-05-05T03:44:33.280Z,4.50
2018-05-05T03:47:00.767Z,4.80
2018-05-05T03:49:28.229Z,4.57
2018-05-05T03:51:55.729Z,4.60
2018-05-05T03:54:23.203Z,4.20
2018-05-05T03:56:50.677Z,5.30
2018-05-05T03:59:29.884Z,4.40
2018-05-05T04:02:09.216Z,4.50
2018-05-05T04:07:31.417Z,5.27
2018-05-05T04:09:58.900Z,5.37
2018-05-05T04:12:26.386Z,4.37
2018-05-05T04:14:53.869Z,4.60
2018-05-05T04:17:21.351Z,5.03
2018-05-05T04:19:48.837Z,4.27
2018-05-05T04:22:16.333Z,4.80
2018-05-05T04:24:43.821Z,5.30
2018-05-05T04:27:11.281Z,5.13
2018-05-05T04:29:38.762Z,5.17
2018-05-05T04:32:06.243Z,4.90
2018-05-05T04:34:34.487Z,4.80
2018-05-05T04:37:02.002Z,4.70
2018-05-05T04:39:29.468Z,4.40
2018-05-05T04:41:56.925Z,3.10
2018-05-05T04:44:24.424Z,4.23
2018-05-05T04:46:51.880Z,4.83
2018-05-05T04:49:19.349Z,5.00
2018-05-05T04:51:46.826Z,5.30
2018-05-05T04:54:14.302Z,4.17
2018-05-05T04:56:41.884Z,5.57
2018-05-05T04:59:09.408Z,5.50
2018-05-05T05:01:36.897Z,6.13
2018-05-05T05:04:04.368Z,4.93
2018-05-05T05:06:31.897Z,5.87
2018-05-05T05:08:59.351Z,4.73
2018-05-05T05:11:26.894Z,5.37
2018-05-05T05:13:54.481Z,5.00
2018-05-05T05:16:21.957Z,6.00
2018-05-05T05:18:49.475Z,5.40
2018-05-05T05:21:16.964Z,5.43
2018-05-05T05:23:44.459Z,5.70
2018-05-05T05:26:11.912Z,3.50
2018-05-05T05:28:39.458Z,4.67
2018-05-05T05:31:07.268Z,4.63
2018-05-05T05:33:35.375Z,6.13
2018-05-05T05:36:03.150Z,5.40
2018-05-05T05:38:30.788Z,5.07
2018-05-05T05:40:58.511Z,5.40
2018-05-05T05:43:26.736Z,4.57
2018-05-05T05:45:54.201Z,4.73
2018-05-05T05:48:21.690Z,6.20
2018-05-05T05:50:49.165Z,5.50
2018-05-05T05:53:16.668Z,5.23
2018-05-05T05:55:44.143Z,5.73
2018-05-05T05:58:11.628Z,5.03
2018-05-05T06:00:39.099Z,5.47
2018-05-05T06:03:06.572Z,4.33
2018-05-05T06:05:34.031Z,5.33
2018-05-05T06:08:01.515Z,5.40
2018-05-05T06:10:28.990Z,5.17
2018-05-05T06:12:56.465Z,4.93
2018-05-05T06:15:23.919Z,4.67
2018-05-05T06:17:51.408Z,5.40
2018-05-05T06:20:18.881Z,4.67
2018-05-05T06:22:46.374Z,4.63
2018-05-05T06:25:13.844Z,5.00
2018-05-05T06:27:41.334Z,5.23
2018-05-05T06:30:08.821Z,5.00
2018-05-05T06:32:36.301Z,4.60
2018-05-05T06:35:04.924Z,5.00
2018-05-05T06:37:32.411Z,4.83
2018-05-05T06:39:59.948Z,4.00
2018-05-05T06:42:27.522Z,3.37
2018-05-05T06:44:55.031Z,4.60
2018-05-05T06:47:22.756Z,4.70
2018-05-05T06:49:50.251Z,5.50
2018-05-05T06:52:17.718Z,4.97
2018-05-05T06:54:45.307Z,5.20
2018-05-05T06:57:12.776Z,4.97
2018-05-05T06:59:40.252Z,5.00
2018-05-05T07:02:07.741Z,5.47
2018-05-05T07:04:35.217Z,5.60
2018-05-05T07:07:02.708Z,5.10
2018-05-05T07:09:30.183Z,4.67
2018-05-05T07:11:57.667Z,4.60
2018-05-05T07:14:25.916Z,5.03
2018-05-05T07:16:53.418Z,5.20
2018-05-05T07:19:20.996Z,5.03
2018-05-05T07:21:48.466Z,5.00
2018-05-05T07:24:15.939Z,5.40
2018-05-05T07:26:43.391Z,5.10
2018-05-05T07:29:10.934Z,4.93
2018-05-05T07:31:38.503Z,4.47
2018-05-05T07:34:05.968Z,4.10
2018-05-05T07:36:33.428Z,3.80
2018-05-05T07:39:00.960Z,3.60
2018-05-05T07:41:28.502Z,3.20
2018-05-05T07:43:56.728Z,4.30
2018-05-05T07:46:24.203Z,3.53
2018-05-05T07:48:51.685Z,3.60
2018-05-05T07:51:19.909Z,3.63
2018-05-05T07:53:47.376Z,4.53
2018-05-05T07:56:14.889Z,5.07
2018-05-05T07:58:42.376Z,4.73
2018-05-05T08:01:09.827Z,4.53
2018-05-05T08:03:37.284Z,3.90
2018-05-05T08:06:04.788Z,4.13
2018-05-05T08:08:32.255Z,4.50
2018-05-05T08:10:59.737Z,4.50
2018-05-05T08:13:27.195Z,4.30
2018-05-05T08:15:55.439Z,2.27
2018-05-05T08:18:22.926Z,2.83
2018-05-05T08:20:50.408Z,3.50
2018-05-05T08:23:17.967Z,3.40
2018-05-05T08:25:45.454Z,2.60
2018-05-05T08:28:12.928Z,2.80
2018-05-05T08:30:40.388Z,2.87
2018-05-05T08:33:07.851Z,2.60
2018-05-05T08:35:35.328Z,3.23
2018-05-05T08:38:02.782Z,2.77
2018-05-05T08:40:30.263Z,2.80
2018-05-05T08:42:57.724Z,2.90
2018-05-05T08:45:25.218Z,3.13
2018-05-05T08:47:52.672Z,3.17
2018-05-05T08:50:20.152Z,3.40
2018-05-05T08:52:47.604Z,2.20
2018-05-05T08:55:15.094Z,3.63
2018-05-05T08:57:43.344Z,3.50
2018-05-05T09:00:10.824Z,4.30
2018-05-05T09:02:39.048Z,4.30
2018-05-05T09:05:06.503Z,4.03
2018-05-05T09:07:33.987Z,5.10
2018-05-05T09:10:01.446Z,3.60
2018-05-05T09:12:28.924Z,3.70
2018-05-05T09:14:56.391Z,4.30
2018-05-05T09:17:24.641Z,3.47
2018-05-05T09:19:52.937Z,4.50
2018-05-05T09:22:20.408Z,4.17
2018-05-05T09:24:48.712Z,4.80
2018-05-05T09:27:16.175Z,4.90
2018-05-05T09:29:43.679Z,4.63
2018-05-05T09:32:11.164Z,3.13
2018-05-05T09:34:38.629Z,4.43
2018-05-05T09:37:06.112Z,4.03
2018-05-05T09:39:33.573Z,4.10
2018-05-05T09:42:01.047Z,2.50
2018-05-05T09:44:28.527Z,3.47
2018-05-05T09:46:56.159Z,4.67
2018-05-05T09:49:23.720Z,4.43
2018-05-05T09:51:51.209Z,4.57
2018-05-05T09:54:18.664Z,4.80
2018-05-05T09:56:46.160Z,5.63
2018-05-05T09:59:14.376Z,4.03
2018-05-05T10:01:41.836Z,4.37
2018-05-05T10:04:09.316Z,4.70
2018-05-05T10:06:36.800Z,4.90
2018-05-05T10:09:04.275Z,4.10
2018-05-05T10:11:31.745Z,4.10
2018-05-05T10:13:59.253Z,3.30
2018-05-05T10:16:26.763Z,4.23
2018-05-05T10:18:54.211Z,4.23
2018-05-05T10:21:21.672Z,3.77
2018-05-05T10:23:49.159Z,4.00
2018-05-05T10:26:16.702Z,4.13
2018-05-05T10:28:44.203Z,5.17
2018-05-05T10:31:11.655Z,3.40
2018-05-05T10:33:39.143Z,3.47
2018-05-05T10:36:07.588Z,3.83
2018-05-05T10:38:36.040Z,3.40
2018-05-05T10:41:03.564Z,4.40
2018-05-05T10:43:31.784Z,3.70
2018-05-05T10:45:59.349Z,3.53
2018-05-05T10:48:26.938Z,3.70
2018-05-05T10:50:54.407Z,3.97
2018-05-05T10:53:21.868Z,4.60
2018-05-05T10:55:49.440Z,4.30
2018-05-05T10:58:17.749Z,4.60
2018-05-05T11:00:45.202Z,3.83
2018-05-05T11:03:12.668Z,3.07
2018-05-05T11:05:40.152Z,4.17
2018-05-05T11:08:07.629Z,4.80
2018-05-05T11:10:35.286Z,3.80
2018-05-05T11:13:02.736Z,4.30
2018-05-05T11:15:30.216Z,4.13
2018-05-05T11:17:57.671Z,4.53
2018-05-05T11:20:25.165Z,4.80
2018-05-05T11:22:52.616Z,4.67
2018-05-05T11:25:20.879Z,4.10
2018-05-05T11:27:48.324Z,3.67
2018-05-05T11:30:15.771Z,3.93
2018-05-05T11:32:43.251Z,4.60
2018-05-05T11:35:11.473Z,3.87
2018-05-05T11:37:38.952Z,5.17
2018-05-05T11:40:06.403Z,6.20
2018-05-05T11:42:33.860Z,4.80
2018-05-05T11:45:01.337Z,4.80
2018-05-05T11:47:28.813Z,5.00
2018-05-05T11:49:56.289Z,4.87
2018-05-05T11:52:23.737Z,4.00
2018-05-05T11:54:51.235Z,3.50
2018-05-05T11:57:18.713Z,4.83
2018-05-05T11:59:46.168Z,4.43
2018-05-05T12:02:14.490Z,4.20
2018-05-05T12:04:41.940Z,5.20
2018-05-05T12:07:09.424Z,4.60
2018-05-05T12:09:37.672Z,4.53
2018-05-05T12:12:05.128Z,5.60
2018-05-05T12:14:34.670Z,4.00
2018-05-05T12:17:02.202Z,4.90
2018-05-05T12:19:29.725Z,5.10
2018-05-05T12:21:57.208Z,5.67
2018-05-05T12:24:24.692Z,6.10
2018-05-05T12:26:52.942Z,4.70
2018-05-05T12:29:20.401Z,4.90
2018-05-05T12:31:47.857Z,5.03
2018-05-05T12:34:15.343Z,5.87
2018-05-05T12:36:43.637Z,4.87
2018-05-05T12:39:11.292Z,5.60
2018-05-05T12:41:38.710Z,5.30
2018-05-05T12:44:06.175Z,3.63
2018-05-05T12:46:33.649Z,4.13
2018-05-05T12:49:01.874Z,5.83
2018-05-05T12:51:29.346Z,4.53
2018-05-05T12:53:56.841Z,4.80
2018-05-05T12:56:25.083Z,3.53
2018-05-05T12:58:52.556Z,4.97
2018-05-05T13:01:20.042Z,5.00
2018-05-05T13:03:48.288Z,4.37
2018-05-05T13:06:15.792Z,5.10
2018-05-05T13:08:43.293Z,5.43
2018-05-05T13:11:10.755Z,4.57
2018-05-05T13:13:38.249Z,4.20
2018-05-05T13:16:05.701Z,4.87
2018-05-05T13:18:33.196Z,4.67
2018-05-05T13:21:00.650Z,5.10
2018-05-05T13:23:28.365Z,4.37
2018-05-05T13:25:56.607Z,4.20
2018-05-05T13:28:24.072Z,4.60
2018-05-05T13:30:51.564Z,4.20
2018-05-05T13:33:19.024Z,3.90
2018-05-05T13:35:46.498Z,4.87
2018-05-05T13:38:14.758Z,5.37
2018-05-05T13:40:42.218Z,6.03
2018-05-05T13:43:09.705Z,6.07
2018-05-05T13:45:37.234Z,5.20
2018-05-05T13:48:04.656Z,5.30
2018-05-05T13:50:32.123Z,5.10
2018-05-05T13:52:59.612Z,5.00
2018-05-05T13:55:27.113Z,5.83
2018-05-05T13:57:54.553Z,5.00
2018-05-05T14:00:22.036Z,4.63
2018-05-05T14:02:49.500Z,4.20
2018-05-05T14:05:17.049Z,5.57
2018-05-05T14:07:44.527Z,4.30
2018-05-05T14:10:12.007Z,3.90
2018-05-05T14:12:39.487Z,4.93
2018-05-05T14:15:06.961Z,3.37
2018-05-05T14:17:35.208Z,4.70
2018-05-05T14:20:02.679Z,4.20
2018-05-05T14:22:30.182Z,4.30
2018-05-05T14:24:57.708Z,4.70
2018-05-05T14:27:25.937Z,5.37
2018-05-05T14:29:53.421Z,4.03
2018-05-05T14:32:20.903Z,3.47
2018-05-05T14:34:49.208Z,3.27
2018-05-05T14:37:16.665Z,3.20
2018-05-05T14:39:44.124Z,3.53
2018-05-05T14:42:11.616Z,4.00
2018-05-05T14:44:39.068Z,4.60
2018-05-05T14:47:06.562Z,4.17
2018-05-05T14:49:34.040Z,4.33
2018-05-05T14:52:01.531Z,4.73
2018-05-05T14:54:29.025Z,3.50
2018-05-05T14:56:56.488Z,3.20
2018-05-05T14:59:23.980Z,2.80
2018-05-05T15:01:51.441Z,4.03
2018-05-05T15:04:18.944Z,3.53
2018-05-05T15:06:46.427Z,3.27
2018-05-05T15:09:13.924Z,3.43
2018-05-05T15:11:41.377Z,3.40
2018-05-05T15:14:08.933Z,3.53
2018-05-05T15:16:36.410Z,3.43
2018-05-05T15:19:03.873Z,3.40
2018-05-05T15:21:31.364Z,3.03
2018-05-05T15:23:58.920Z,3.30
2018-05-05T15:26:26.305Z,3.43
2018-05-05T15:28:53.779Z,3.40
2018-05-05T15:31:21.269Z,3.30
2018-05-05T15:33:48.726Z,3.10
2018-05-05T15:36:16.972Z,3.10
2018-05-05T15:38:44.436Z,2.93
2018-05-05T15:41:11.914Z,2.90
2018-05-05T15:43:39.380Z,2.57
2018-05-05T15:46:06.836Z,2.40
2018-05-05T15:48:34.383Z,2.90
2018-05-05T15:51:01.852Z,3.03
2018-05-05T15:53:29.306Z,3.77
2018-05-05T15:55:56.788Z,4.13
2018-05-05T15:58:24.257Z,3.57
2018-05-05T16:00:51.719Z,2.90
2018-05-05T16:03:19.196Z,3.40
2018-05-05T16:05:46.680Z,3.40
2018-05-05T16:08:14.148Z,3.00
2018-05-05T16:10:41.613Z,3.77
2018-05-05T16:13:09.097Z,4.37
2018-05-05T16:15:36.591Z,3.80
2018-05-05T16:18:04.807Z,3.90
2018-05-05T16:20:32.285Z,3.80
2018-05-05T16:22:59.784Z,11.67
2018-05-05T16:25:28.090Z,11.30
2018-05-05T16:27:55.573Z,6.47
2018-05-05T16:30:23.056Z,6.27
2018-05-05T16:32:50.525Z,6.40
2018-05-05T16:35:17.984Z,4.50
2018-05-05T16:37:45.475Z,5.50
2018-05-05T16:40:12.951Z,4.33
2018-05-05T16:42:40.407Z,4.93
2018-05-05T16:45:07.876Z,4.20
2018-05-05T16:47:35.394Z,5.70
2018-05-05T16:50:03.648Z,5.10
2018-05-05T16:52:31.120Z,5.00
2018-05-05T16:54:59.475Z,5.77
2018-05-05T16:57:26.931Z,5.30
2018-05-05T16:59:54.397Z,4.67
2018-05-05T17:02:21.885Z,5.77
2018-05-05T17:04:49.388Z,5.67
2018-05-05T17:07:16.848Z,4.87
2018-05-05T17:09:44.311Z,4.70
2018-05-05T17:12:11.789Z,4.43
2018-05-05T17:14:39.260Z,4.50
2018-05-05T17:17:07.511Z,5.40
2018-05-05T17:19:34.968Z,4.77
2018-05-05T17:22:02.444Z,5.30
2018-05-05T17:24:29.949Z,5.27
2018-05-05T17:26:57.435Z,4.93
2018-05-05T17:29:24.916Z,5.10
2018-05-05T17:31:52.391Z,5.47
2018-05-05T17:34:19.869Z,5.47
2018-05-05T17:36:47.358Z,5.30
2018-05-05T17:39:14.825Z,5.30
2018-05-05T17:41:42.550Z,4.63
2018-05-05T17:44:10.022Z,4.00
2018-05-05T17:46:37.545Z,4.60
2018-05-05T17:49:05.840Z,4.00
2018-05-05T17:51:33.385Z,4.47
2018-05-05T17:54:01.659Z,4.60
2018-05-05T17:56:29.888Z,3.77
2018-05-05T17:58:57.344Z,5.07
2018-05-05T18:01:24.840Z,4.70
2018-05-05T18:03:52.326Z,4.47
2018-05-05T18:06:20.544Z,6.57
2018-05-05T18:08:48.046Z,4.73
2018-05-05T18:11:16.276Z,4.33
2018-05-05T18:13:43.740Z,4.63
2018-05-05T18:16:11.266Z,5.13
2018-05-05T18:18:38.728Z,5.73
2018-05-05T18:21:06.201Z,4.90
2018-05-05T18:23:34.264Z,4.83
2018-05-05T18:26:01.744Z,5.00
2018-05-05T18:31:03.282Z,5.30
2018-05-05T18:33:30.735Z,4.93
2018-05-05T18:35:58.228Z,5.43
2018-05-05T18:38:25.724Z,5.77
2018-05-05T18:40:53.224Z,5.20
2018-05-05T18:43:20.701Z,5.93
2018-05-05T18:45:48.229Z,7.00
2018-05-05T18:48:15.736Z,7.10
2018-05-05T18:50:43.982Z,8.90
2018-05-05T18:53:11.489Z,9.33
2018-05-05T18:55:38.965Z,6.30
2018-05-05T18:58:07.264Z,7.37
2018-05-05T19:00:34.756Z,5.47
2018-05-05T19:03:02.237Z,5.13
2018-05-05T19:05:29.750Z,5.17
2018-05-05T19:07:57.455Z,5.30
2018-05-05T19:10:24.940Z,4.73
2018-05-05T19:12:53.475Z,5.07
2018-05-05T19:15:20.984Z,4.67
2018-05-05T19:17:49.229Z,4.50
2018-05-05T19:20:16.861Z,4.13
2018-05-05T19:22:44.357Z,5.10
2018-05-05T19:25:11.835Z,3.83
2018-05-05T19:27:39.499Z,3.80
2018-05-05T19:30:07.192Z,3.60
2018-05-05T19:32:34.762Z,4.30
2018-05-05T19:35:02.307Z,4.30
2018-05-05T19:37:29.957Z,3.87
2018-05-05T19:39:58.346Z,3.77
2018-05-05T19:42:26.018Z,4.20
2018-05-05T19:44:53.647Z,4.30
2018-05-05T19:47:21.176Z,4.27
2018-05-05T19:49:48.791Z,4.77
2018-05-05T19:52:16.578Z,5.17
2018-05-05T19:54:44.111Z,4.43
2018-05-05T19:57:11.588Z,4.83
2018-05-05T19:59:39.282Z,5.87
2018-05-05T20:02:06.863Z,5.43
2018-05-05T20:04:34.497Z,5.10
2018-05-05T20:07:01.975Z,6.07
2018-05-05T20:09:29.629Z,6.10
2018-05-05T20:11:57.229Z,6.70
2018-05-05T20:14:25.664Z,6.87
2018-05-05T20:16:53.162Z,6.80
2018-05-05T20:19:20.666Z,7.37
2018-05-05T20:21:49.049Z,6.07
2018-05-05T20:24:16.559Z,6.33
2018-05-05T20:26:44.080Z,6.40
2018-05-05T20:29:11.753Z,7.13
2018-05-05T20:31:39.346Z,7.50
2018-05-05T20:34:07.061Z,7.17
2018-05-05T20:36:34.720Z,5.27
2018-05-05T20:39:02.226Z,6.30
2018-05-05T20:41:29.702Z,5.37
2018-05-05T20:43:57.150Z,6.40
2018-05-05T20:46:24.642Z,5.20
2018-05-05T20:48:58.133Z,6.00
2018-05-05T20:51:25.584Z,5.07
2018-05-05T20:53:53.147Z,5.60
2018-05-05T20:56:20.644Z,4.90
2018-05-05T20:58:48.137Z,5.27
2018-05-05T21:01:15.624Z,5.80
2018-05-05T21:03:43.844Z,4.23
2018-05-05T21:06:11.354Z,4.03
2018-05-05T21:08:39.594Z,4.50
2018-05-05T21:11:07.257Z,4.13
2018-05-05T21:13:35.312Z,4.00
2018-05-05T21:16:02.765Z,4.20
2018-05-05T21:18:30.256Z,3.60
2018-05-05T21:20:57.747Z,3.80
2018-05-05T21:23:25.274Z,3.73
2018-05-05T21:25:52.767Z,3.90
2018-05-05T21:28:20.228Z,3.87
2018-05-05T21:30:47.676Z,3.50
2018-05-05T21:33:15.163Z,3.77
2018-05-05T21:35:42.688Z,4.07
2018-05-05T21:38:10.926Z,4.10
2018-05-05T21:40:38.417Z,3.93
2018-05-05T21:43:06.654Z,3.57
2018-05-05T21:45:34.125Z,3.23
2018-05-05T21:48:01.606Z,3.43
2018-05-05T21:50:29.920Z,3.13
2018-05-05T21:52:57.401Z,3.33
2018-05-05T21:55:24.871Z,3.17
2018-05-05T21:57:52.357Z,3.27
2018-05-05T22:00:20.617Z,3.50
2018-05-05T22:02:48.091Z,3.90
2018-05-05T22:05:15.572Z,3.50
2018-05-05T22:07:43.065Z,3.27
2018-05-05T22:10:10.544Z,3.27
2018-05-05T22:12:38.027Z,2.67
2018-05-05T22:15:06.240Z,2.20
2018-05-05T22:17:33.729Z,3.27
2018-05-05T22:20:01.189Z,3.03
2018-05-05T22:22:29.438Z,4.73
2018-05-05T22:24:56.926Z,3.50
2018-05-05T22:27:24.380Z,2.80
2018-05-05T22:29:51.860Z,3.30
2018-05-05T22:32:19.323Z,2.83
2018-05-05T22:34:46.818Z,3.97
2018-05-05T22:37:14.273Z,3.20
2018-05-05T22:39:41.748Z,3.80
2018-05-05T22:42:09.213Z,3.53
2018-05-05T22:44:36.680Z,3.00
2018-05-05T22:47:04.136Z,3.40
2018-05-05T22:49:31.632Z,3.03
2018-05-05T22:51:59.120Z,3.20
2018-05-05T22:54:26.585Z,3.23
2018-05-05T22:56:54.080Z,3.20
2018-05-05T22:59:21.543Z,3.90
2018-05-05T23:01:49.034Z,3.30
2018-05-05T23:04:17.298Z,2.80
2018-05-05T23:06:44.752Z,3.10
2018-05-05T23:09:12.269Z,3.40
2018-05-05T23:11:39.748Z,2.70
2018-05-05T23:14:07.192Z,2.43
2018-05-05T23:16:34.674Z,2.83
2018-05-05T23:19:02.128Z,2.57
2018-05-05T23:21:29.598Z,3.20
2018-05-05T23:23:57.051Z,3.27
2018-05-05T23:26:24.636Z,2.97
2018-05-05T23:28:52.867Z,2.43
2018-05-05T23:31:20.355Z,2.50
2018-05-05T23:33:47.819Z,3.60
2018-05-05T23:36:15.293Z,4.30
2018-05-05T23:38:43.544Z,2.40
2018-05-05T23:41:11.024Z,3.17
2018-05-05T23:43:39.256Z,2.70
2018-05-05T23:46:06.743Z,2.83
2018-05-05T23:48:34.307Z,2.60
2018-05-05T23:51:01.786Z,2.83
2018-05-05T23:53:29.274Z,2.10
2018-05-05T23:55:56.799Z,2.80
2018-05-05T23:58:25.060Z,3.10
